createdAt,value
2019-05-25T00:00:49.973Z,0.00
2019-05-25T00:01:49.942Z,0.00
2019-05-25T00:02:49.940Z,0.00
2019-05-25T00:03:49.932Z,0.00
2019-05-25T00:04:49.937Z,0.00
2019-05-25T00:05:49.879Z,0.00
2019-05-25T00:06:49.843Z,0.00
2019-05-25T00:07:49.824Z,0.00
2019-05-25T00:08:49.809Z,0.00
2019-05-25T00:09:49.804Z,0.00
2019-05-25T00:10:49.777Z,0.00
2019-05-25T00:11:49.743Z,0.00
2019-05-25T00:12:49.705Z,0.00
2019-05-25T00:13:49.708Z,0.00
2019-05-25T00:14:49.698Z,0.00
2019-05-25T00:15:49.697Z,0.00
2019-05-25T00:16:49.631Z,0.00
2019-05-25T00:17:49.606Z,0.00
2019-05-25T00:18:49.566Z,0.00
2019-05-25T00:19:49.584Z,0.00
2019-05-25T00:20:49.575Z,0.00
2019-05-25T00:21:49.529Z,0.00
2019-05-25T00:22:49.497Z,0.00
2019-05-25T00:23:49.475Z,0.00
2019-05-25T00:24:49.465Z,0.00
2019-05-25T00:25:49.433Z,0.00
2019-05-25T00:26:49.414Z,0.00
2019-05-25T00:27:49.417Z,0.00
2019-05-25T00:28:49.455Z,0.00
2019-05-25T00:29:49.358Z,0.00
2019-05-25T00:30:49.388Z,0.00
2019-05-25T00:31:49.306Z,0.00
2019-05-25T00:32:49.347Z,0.00
2019-05-25T00:33:49.267Z,0.00
2019-05-25T00:34:49.259Z,0.00
2019-05-25T00:35:49.221Z,0.00
2019-05-25T00:36:49.199Z,0.00
2019-05-25T00:37:49.202Z,0.00
2019-05-25T00:38:49.156Z,0.00
2019-05-25T00:39:49.132Z,0.00
2019-05-25T00:40:57.771Z,0.00
2019-05-25T00:42:42.019Z,0.00
2019-05-25T00:43:41.971Z,0.00
2019-05-25T00:45:35.089Z,0.00
2019-05-25T00:46:34.848Z,0.00
2019-05-25T00:48:27.724Z,0.00
2019-05-25T00:49:27.704Z,0.00
2019-05-25T00:51:20.630Z,0.00
2019-05-25T00:52:20.561Z,0.00
2019-05-25T00:54:27.168Z,0.00
2019-05-25T00:55:13.425Z,0.00
2019-05-25T00:57:23.454Z,0.00
2019-05-25T00:58:23.459Z,0.00
2019-05-25T01:00:26.289Z,0.00
2019-05-25T01:01:26.203Z,0.00
2019-05-25T01:02:26.183Z,0.00
2019-05-25T01:03:26.189Z,0.00
2019-05-25T01:04:26.160Z,0.00
2019-05-25T01:05:26.156Z,0.00
2019-05-25T01:06:26.111Z,0.00
2019-05-25T01:07:26.094Z,0.00
2019-05-25T01:08:26.072Z,0.00
2019-05-25T01:09:26.069Z,0.00
2019-05-25T01:10:26.022Z,0.00
2019-05-25T01:11:25.989Z,0.00
2019-05-25T01:12:26.021Z,0.00
2019-05-25T01:13:25.950Z,0.00
2019-05-25T01:14:25.950Z,0.00
2019-05-25T01:15:25.982Z,0.00
2019-05-25T01:16:25.914Z,0.00
2019-05-25T01:17:25.864Z,0.00
2019-05-25T01:18:25.888Z,0.00
2019-05-25T01:19:25.837Z,0.00
2019-05-25T01:20:25.818Z,0.00
2019-05-25T01:21:25.806Z,0.00
2019-05-25T01:22:25.767Z,0.00
2019-05-25T01:23:25.826Z,0.00
2019-05-25T01:24:25.737Z,0.00
2019-05-25T01:25:25.735Z,0.00
2019-05-25T01:26:25.680Z,0.00
2019-05-25T01:27:25.649Z,0.00
2019-05-25T01:28:25.632Z,0.00
2019-05-25T01:29:25.606Z,0.00
2019-05-25T01:30:25.604Z,0.00
2019-05-25T01:31:25.572Z,0.00
2019-05-25T01:32:25.542Z,0.00
2019-05-25T01:33:25.530Z,0.00
2019-05-25T01:34:25.543Z,0.00
2019-05-25T01:35:25.490Z,0.00
2019-05-25T01:36:25.468Z,0.00
2019-05-25T01:37:25.482Z,0.00
2019-05-25T01:38:25.425Z,0.00
2019-05-25T01:39:25.397Z,0.00
2019-05-25T01:40:25.384Z,0.00
2019-05-25T01:41:25.392Z,0.00
2019-05-25T01:42:25.375Z,0.00
2019-05-25T01:43:25.360Z,0.00
2019-05-25T01:44:25.318Z,0.00
2019-05-25T01:45:25.285Z,0.00
2019-05-25T01:46:25.266Z,0.00
2019-05-25T01:47:25.208Z,0.00
2019-05-25T01:48:25.206Z,0.00
2019-05-25T01:49:25.171Z,0.00
2019-05-25T01:50:25.262Z,0.00
2019-05-25T01:51:25.116Z,0.00
2019-05-25T01:52:25.146Z,0.00
2019-05-25T01:53:25.080Z,0.00
2019-05-25T01:54:25.057Z,0.00
2019-05-25T01:55:25.059Z,0.00
2019-05-25T01:56:25.019Z,0.00
2019-05-25T01:57:24.983Z,0.00
2019-05-25T01:58:24.965Z,0.00
2019-05-25T01:59:24.970Z,0.00
2019-05-25T02:00:24.924Z,0.00
2019-05-25T02:01:24.905Z,0.00
2019-05-25T02:02:24.896Z,0.00
2019-05-25T02:03:24.852Z,0.00
2019-05-25T02:04:24.859Z,0.00
2019-05-25T02:05:24.813Z,0.00
2019-05-25T02:06:24.793Z,0.00
2019-05-25T02:07:24.773Z,0.00
2019-05-25T02:08:24.751Z,0.00
2019-05-25T02:09:24.735Z,0.00
2019-05-25T02:10:24.813Z,0.00
2019-05-25T02:11:24.704Z,0.00
2019-05-25T02:12:24.735Z,0.00
2019-05-25T02:13:24.718Z,0.00
2019-05-25T02:14:24.677Z,0.00
2019-05-25T02:15:24.613Z,0.00
2019-05-25T02:16:24.602Z,0.00
2019-05-25T02:17:24.570Z,0.00
2019-05-25T02:18:24.574Z,0.00
2019-05-25T02:19:24.531Z,0.00
2019-05-25T02:20:24.509Z,0.00
2019-05-25T02:21:24.486Z,0.00
2019-05-25T02:22:24.445Z,0.00
2019-05-25T02:23:24.441Z,0.00
2019-05-25T02:24:24.486Z,0.00
2019-05-25T02:25:24.375Z,0.00
2019-05-25T02:26:24.371Z,0.00
2019-05-25T02:27:24.345Z,0.00
2019-05-25T02:28:24.315Z,0.00
2019-05-25T02:29:24.293Z,0.00
2019-05-25T02:30:24.300Z,0.00
2019-05-25T02:31:24.272Z,0.00
2019-05-25T02:32:24.241Z,0.00
2019-05-25T02:33:24.249Z,0.00
2019-05-25T02:34:24.190Z,0.00
2019-05-25T02:35:24.203Z,0.00
2019-05-25T02:36:24.153Z,0.00
2019-05-25T02:37:24.122Z,0.00
2019-05-25T02:38:24.110Z,0.00
2019-05-25T02:39:24.118Z,4.00
2019-05-25T02:40:24.054Z,4.00
2019-05-25T02:41:24.060Z,4.00
2019-05-25T02:42:24.011Z,0.00
2019-05-25T02:43:23.988Z,4.00
2019-05-25T02:44:23.975Z,4.00
2019-05-25T02:45:23.951Z,4.00
2019-05-25T02:46:23.952Z,4.00
2019-05-25T02:47:23.933Z,8.00
2019-05-25T02:48:23.909Z,4.00
2019-05-25T02:49:23.893Z,8.00
2019-05-25T02:50:23.842Z,8.00
2019-05-25T02:51:23.817Z,12.00
2019-05-25T02:52:23.791Z,12.00
2019-05-25T02:53:23.779Z,12.00
2019-05-25T02:54:23.763Z,16.00
2019-05-25T02:55:33.853Z,20.00
2019-05-25T02:56:23.723Z,20.00
2019-05-25T02:57:23.704Z,24.00
2019-05-25T02:58:23.668Z,28.00
2019-05-25T02:59:23.670Z,32.00
2019-05-25T03:00:23.648Z,40.00
2019-05-25T03:01:23.612Z,40.00
2019-05-25T03:02:23.600Z,48.00
2019-05-25T03:03:23.581Z,56.00
2019-05-25T03:04:23.536Z,64.00
2019-05-25T03:05:23.531Z,68.00
2019-05-25T03:06:23.514Z,76.00
2019-05-25T03:07:23.540Z,88.00
2019-05-25T03:08:23.531Z,100.00
2019-05-25T03:09:23.442Z,112.00
2019-05-25T03:10:23.399Z,124.00
2019-05-25T03:11:31.065Z,140.00
2019-05-25T03:13:17.787Z,168.00
2019-05-25T03:14:17.735Z,184.00
2019-05-25T03:16:10.620Z,232.00
2019-05-25T03:17:10.565Z,256.00
2019-05-25T03:19:03.464Z,304.00
2019-05-25T03:20:03.436Z,332.00
2019-05-25T03:22:10.130Z,388.00
2019-05-25T03:23:09.538Z,416.00
2019-05-25T03:25:03.904Z,476.00
2019-05-25T03:26:03.879Z,516.00
2019-05-25T03:27:56.762Z,604.00
2019-05-25T03:28:56.713Z,660.00
2019-05-25T03:31:03.138Z,788.00
2019-05-25T03:32:03.057Z,840.00
2019-05-25T03:33:59.939Z,968.00
2019-05-25T03:34:59.915Z,1068.00
2019-05-25T03:36:53.479Z,1248.00
2019-05-25T03:37:52.784Z,1324.00
2019-05-25T03:39:58.693Z,1512.00
2019-05-25T03:40:58.679Z,1616.00
2019-05-25T03:41:58.649Z,1732.00
2019-05-25T03:42:58.607Z,1856.00
2019-05-25T03:43:58.586Z,1988.00
2019-05-25T03:44:58.566Z,2112.00
2019-05-25T03:45:58.546Z,2260.00
2019-05-25T03:46:58.565Z,2432.00
2019-05-25T03:47:58.554Z,2608.00
2019-05-25T03:48:58.492Z,2788.00
2019-05-25T03:49:58.468Z,2976.00
2019-05-25T03:50:58.477Z,3168.00
2019-05-25T03:51:58.440Z,3380.00
2019-05-25T03:52:58.394Z,3592.00
2019-05-25T03:53:58.400Z,3808.00
2019-05-25T03:54:58.380Z,4004.00
2019-05-25T03:56:05.701Z,4164.00
2019-05-25T03:56:58.318Z,4308.00
2019-05-25T03:57:58.315Z,4424.00
2019-05-25T03:58:58.296Z,4524.00
2019-05-25T03:59:58.245Z,4596.00
2019-05-25T04:00:58.237Z,4648.00
2019-05-25T04:01:58.235Z,4688.00
2019-05-25T04:02:58.251Z,4748.00
2019-05-25T04:03:58.171Z,4820.00
2019-05-25T04:04:58.134Z,4896.00
2019-05-25T04:05:58.119Z,4996.00
2019-05-25T04:07:06.758Z,5084.00
2019-05-25T04:08:51.011Z,5208.00
2019-05-25T04:09:50.959Z,5224.00
2019-05-25T04:11:43.877Z,5244.00
2019-05-25T04:12:43.822Z,5240.00
2019-05-25T04:13:43.827Z,5232.00
2019-05-25T04:14:43.782Z,5228.00
2019-05-25T04:15:43.764Z,5196.00
2019-05-25T04:16:43.740Z,5132.00
2019-05-25T04:17:43.721Z,5040.00
2019-05-25T04:18:43.700Z,4976.00
2019-05-25T04:19:43.687Z,4908.00
2019-05-25T04:20:43.672Z,4848.00
2019-05-25T04:21:43.640Z,4812.00
2019-05-25T04:22:43.619Z,4808.00
2019-05-25T04:23:43.601Z,4828.00
2019-05-25T04:24:43.577Z,4844.00
2019-05-25T04:25:43.562Z,4860.00
2019-05-25T04:26:43.536Z,4900.00
2019-05-25T04:27:43.537Z,4916.00
2019-05-25T04:28:43.498Z,4952.00
2019-05-25T04:29:43.478Z,4996.00
2019-05-25T04:30:43.475Z,5032.00
2019-05-25T04:31:43.431Z,5100.00
2019-05-25T04:32:43.416Z,5184.00
2019-05-25T04:33:43.397Z,5212.00
2019-05-25T04:34:43.378Z,5284.00
2019-05-25T04:35:43.356Z,5304.00
2019-05-25T04:36:43.335Z,5244.00
2019-05-25T04:37:43.375Z,5084.00
2019-05-25T04:38:43.333Z,5016.00
2019-05-25T04:39:43.273Z,4840.00
2019-05-25T04:40:43.254Z,4604.00
2019-05-25T04:41:43.229Z,4428.00
2019-05-25T04:42:43.214Z,4244.00
2019-05-25T04:43:43.194Z,4120.00
2019-05-25T04:44:43.168Z,4112.00
2019-05-25T04:45:50.345Z,4196.00
2019-05-25T04:47:36.494Z,4500.00
2019-05-25T04:48:36.213Z,4800.00
2019-05-25T04:50:32.138Z,5496.00
2019-05-25T04:51:32.100Z,5952.00
2019-05-25T04:53:26.608Z,6632.00
2019-05-25T04:54:26.546Z,6828.00
2019-05-25T04:55:26.532Z,6996.00
2019-05-25T04:56:39.095Z,7104.00
2019-05-25T04:57:26.513Z,7188.00
2019-05-25T04:58:26.463Z,7280.00
2019-05-25T04:59:26.471Z,7416.00
2019-05-25T05:00:26.450Z,7584.00
2019-05-25T05:01:26.467Z,7780.00
2019-05-25T05:02:26.412Z,8008.00
2019-05-25T05:03:26.364Z,8232.00
2019-05-25T05:04:26.354Z,8492.00
2019-05-25T05:05:26.328Z,8792.00
2019-05-25T05:06:26.313Z,9068.00
2019-05-25T05:07:26.375Z,9252.00
2019-05-25T05:08:26.282Z,9392.00
2019-05-25T05:09:26.264Z,9452.00
2019-05-25T05:10:26.231Z,9376.00
2019-05-25T05:11:26.219Z,9200.00
2019-05-25T05:12:26.204Z,8992.00
2019-05-25T05:13:26.176Z,8792.00
2019-05-25T05:14:26.062Z,8592.00
2019-05-25T05:15:26.148Z,8404.00
2019-05-25T05:16:26.125Z,8260.00
2019-05-25T05:17:26.116Z,8144.00
2019-05-25T05:18:26.073Z,8084.00
2019-05-25T05:19:26.058Z,8116.00
2019-05-25T05:20:26.105Z,8248.00
2019-05-25T05:21:26.020Z,8440.00
2019-05-25T05:22:26.019Z,8760.00
2019-05-25T05:23:26.018Z,9220.00
2019-05-25T05:24:25.995Z,9824.00
2019-05-25T05:25:25.963Z,10400.00
2019-05-25T05:26:25.953Z,10748.00
2019-05-25T05:27:25.910Z,10772.00
2019-05-25T05:28:25.914Z,10696.00
2019-05-25T05:29:25.819Z,10788.00
2019-05-25T05:30:25.874Z,11084.00
2019-05-25T05:31:25.862Z,11608.00
2019-05-25T05:32:27.877Z,12324.00
2019-05-25T05:33:25.833Z,13068.00
2019-05-25T05:34:25.784Z,14328.00
2019-05-25T05:35:25.746Z,17344.00
2019-05-25T05:36:25.745Z,18176.00
2019-05-25T05:37:25.785Z,17504.00
2019-05-25T05:38:25.707Z,19200.00
2019-05-25T05:39:25.683Z,13876.00
2019-05-25T05:40:25.661Z,12932.00
2019-05-25T05:41:25.543Z,11956.00
2019-05-25T05:42:25.646Z,11528.00
2019-05-25T05:43:25.607Z,11524.00
2019-05-25T05:44:25.629Z,11808.00
2019-05-25T05:45:25.567Z,12332.00
2019-05-25T05:46:25.579Z,13052.00
2019-05-25T05:47:25.565Z,14320.00
2019-05-25T05:48:25.515Z,16064.00
2019-05-25T05:49:25.487Z,17216.00
2019-05-25T05:50:25.489Z,14968.00
2019-05-25T05:51:27.239Z,13528.00
2019-05-25T05:52:25.451Z,12868.00
2019-05-25T05:53:25.420Z,13148.00
2019-05-25T05:54:25.413Z,13568.00
2019-05-25T05:55:25.433Z,13996.00
2019-05-25T05:56:25.390Z,14368.00
2019-05-25T05:57:25.367Z,14896.00
2019-05-25T05:58:25.352Z,15556.00
2019-05-25T05:59:25.325Z,15100.00
2019-05-25T06:00:25.328Z,15056.00
2019-05-25T06:01:25.295Z,14620.00
2019-05-25T06:02:25.289Z,14356.00
2019-05-25T06:03:25.263Z,14356.00
2019-05-25T06:04:25.266Z,14784.00
2019-05-25T06:05:25.246Z,15608.00
2019-05-25T06:06:25.203Z,16880.00
2019-05-25T06:07:27.370Z,19008.00
2019-05-25T06:08:25.183Z,20064.00
2019-05-25T06:09:25.141Z,22336.00
2019-05-25T06:10:25.125Z,22944.00
2019-05-25T06:11:25.162Z,24544.00
2019-05-25T06:12:25.173Z,24992.00
2019-05-25T06:13:25.071Z,25376.00
2019-05-25T06:14:25.091Z,25856.00
2019-05-25T06:15:25.089Z,26176.00
2019-05-25T06:16:25.033Z,26464.00
2019-05-25T06:17:25.018Z,26624.00
2019-05-25T06:18:25.010Z,26624.00
2019-05-25T06:19:24.994Z,26496.00
2019-05-25T06:20:24.989Z,26432.00
2019-05-25T06:21:24.959Z,26560.00
2019-05-25T06:22:24.924Z,27104.00
2019-05-25T06:23:24.917Z,27776.00
2019-05-25T06:24:24.808Z,28032.00
2019-05-25T06:25:24.899Z,27776.00
2019-05-25T06:26:24.896Z,29248.00
2019-05-25T06:27:27.734Z,27936.00
2019-05-25T06:28:24.893Z,30624.00
2019-05-25T06:29:24.836Z,31136.00
2019-05-25T06:30:24.840Z,30880.00
2019-05-25T06:31:24.820Z,31136.00
2019-05-25T06:32:24.820Z,31872.00
2019-05-25T06:33:24.797Z,32416.00
2019-05-25T06:34:24.830Z,34048.00
2019-05-25T06:35:24.745Z,34720.00
2019-05-25T06:36:24.750Z,35584.00
2019-05-25T06:37:24.741Z,36480.00
2019-05-25T06:38:24.731Z,36576.00
2019-05-25T06:39:24.700Z,37632.00
2019-05-25T06:40:24.703Z,37472.00
2019-05-25T06:41:24.680Z,38016.00
2019-05-25T06:42:24.669Z,38944.00
2019-05-25T06:43:33.217Z,39232.00
2019-05-25T06:45:17.511Z,39136.00
2019-05-25T06:46:17.451Z,36128.00
2019-05-25T06:48:11.080Z,42976.00
2019-05-25T06:49:10.341Z,41792.00
2019-05-25T06:51:03.282Z,47168.00
2019-05-25T06:52:03.247Z,59040.00
2019-05-25T06:53:56.374Z,40672.00
2019-05-25T06:54:56.141Z,35552.00
2019-05-25T06:56:50.070Z,32320.00
2019-05-25T06:57:50.041Z,31424.00
2019-05-25T06:59:42.984Z,37632.00
2019-05-25T07:00:42.959Z,30400.00
2019-05-25T07:02:35.868Z,29856.00
2019-05-25T07:03:35.824Z,29504.00
2019-05-25T07:05:29.749Z,44128.00
2019-05-25T07:06:29.730Z,30016.00
2019-05-25T07:08:22.662Z,30592.00
2019-05-25T07:09:22.622Z,31392.00
2019-05-25T07:11:15.621Z,32736.00
2019-05-25T07:12:15.589Z,66176.00
2019-05-25T07:14:10.133Z,64448.00
2019-05-25T07:15:10.097Z,33216.00
2019-05-25T07:17:03.489Z,47872.00
2019-05-25T07:18:03.457Z,73504.00
2019-05-25T07:19:57.883Z,71040.00
2019-05-25T07:20:57.844Z,66912.00
2019-05-25T07:22:51.433Z,69568.00
2019-05-25T07:23:50.742Z,68320.00
2019-05-25T07:25:44.666Z,59520.00
2019-05-25T07:26:44.665Z,64992.00
2019-05-25T07:28:37.813Z,70240.00
2019-05-25T07:29:37.545Z,68288.00
2019-05-25T07:31:30.432Z,73440.00
2019-05-25T07:32:30.423Z,76832.00
2019-05-25T07:34:23.359Z,81664.00
2019-05-25T07:35:23.327Z,83520.00
2019-05-25T07:37:16.234Z,78976.00
2019-05-25T07:38:16.217Z,75744.00
2019-05-25T07:40:09.192Z,77632.00
2019-05-25T07:41:09.096Z,77696.00
2019-05-25T07:43:03.001Z,77152.00
2019-05-25T07:44:02.448Z,67360.00
2019-05-25T07:45:02.446Z,65376.00
2019-05-25T07:46:02.433Z,66048.00
2019-05-25T07:47:02.422Z,64608.00
2019-05-25T07:48:02.410Z,64288.00
2019-05-25T07:49:02.416Z,70016.00
2019-05-25T07:50:02.393Z,71840.00
2019-05-25T07:51:02.398Z,68288.00
2019-05-25T07:52:02.923Z,80000.00
2019-05-25T07:53:02.361Z,81888.00
2019-05-25T07:54:02.355Z,82752.00
2019-05-25T07:55:02.335Z,88800.00
2019-05-25T07:56:02.333Z,89216.00
2019-05-25T07:57:02.324Z,77984.00
2019-05-25T07:58:15.859Z,68128.00
2019-05-25T07:59:02.320Z,59616.00
2019-05-25T08:00:02.289Z,47520.00
2019-05-25T08:01:02.279Z,42240.00
2019-05-25T08:02:02.270Z,37952.00
2019-05-25T08:03:02.261Z,37184.00
2019-05-25T08:04:02.253Z,35424.00
2019-05-25T08:05:02.244Z,36800.00
2019-05-25T08:06:02.232Z,41568.00
2019-05-25T08:07:02.249Z,53248.00
2019-05-25T08:08:03.216Z,51136.00
2019-05-25T08:09:02.201Z,61184.00
2019-05-25T08:10:02.191Z,66208.00
2019-05-25T08:11:02.175Z,69024.00
2019-05-25T08:12:02.167Z,63552.00
2019-05-25T08:13:02.161Z,64064.00
2019-05-25T08:14:02.152Z,71840.00
2019-05-25T08:15:02.164Z,74880.00
2019-05-25T08:16:02.121Z,76128.00
2019-05-25T08:17:02.112Z,78528.00
2019-05-25T08:18:02.118Z,80352.00
2019-05-25T08:19:02.114Z,84160.00
2019-05-25T08:20:02.085Z,83296.00
2019-05-25T08:21:02.072Z,83168.00
2019-05-25T08:22:02.064Z,81344.00
2019-05-25T08:23:02.057Z,76384.00
2019-05-25T08:24:02.039Z,71968.00
2019-05-25T08:25:02.033Z,68128.00
2019-05-25T08:26:02.024Z,74592.00
2019-05-25T08:27:02.025Z,79936.00
2019-05-25T08:28:02.005Z,81504.00
2019-05-25T08:29:01.998Z,84768.00
2019-05-25T08:30:02.016Z,88992.00
2019-05-25T08:31:01.995Z,94528.00
2019-05-25T08:32:01.958Z,91840.00
2019-05-25T08:33:01.960Z,93888.00
2019-05-25T08:34:01.944Z,96256.00
2019-05-25T08:35:01.939Z,98240.00
2019-05-25T08:36:01.935Z,103328.00
2019-05-25T08:37:01.916Z,104160.00
2019-05-25T08:38:01.905Z,105568.00
2019-05-25T08:39:01.898Z,104608.00
2019-05-25T08:40:01.905Z,103968.00
2019-05-25T08:41:01.882Z,109440.00
2019-05-25T08:42:01.865Z,109504.00
2019-05-25T08:43:01.856Z,109856.00
2019-05-25T08:44:04.417Z,111872.00
2019-05-25T08:45:01.845Z,112288.00
2019-05-25T08:46:01.834Z,111424.00
2019-05-25T08:47:01.832Z,112928.00
2019-05-25T08:48:01.821Z,52480.00
2019-05-25T08:49:01.812Z,42720.00
2019-05-25T08:50:01.818Z,50656.00
2019-05-25T08:51:01.796Z,50752.00
2019-05-25T08:52:04.167Z,87040.00
2019-05-25T08:53:01.785Z,72416.00
2019-05-25T08:54:01.776Z,89376.00
2019-05-25T08:55:01.835Z,48448.00
2019-05-25T08:56:01.758Z,54240.00
2019-05-25T08:57:01.804Z,73664.00
2019-05-25T08:58:01.743Z,105856.00
2019-05-25T08:59:01.729Z,54176.00
2019-05-25T09:00:01.716Z,43008.00
2019-05-25T09:01:01.715Z,37120.00
2019-05-25T09:02:01.705Z,36096.00
2019-05-25T09:03:01.692Z,37344.00
2019-05-25T09:04:01.683Z,38208.00
2019-05-25T09:05:01.676Z,36416.00
2019-05-25T09:06:01.664Z,33120.00
2019-05-25T09:07:01.659Z,30912.00
2019-05-25T09:08:01.644Z,30688.00
2019-05-25T09:09:01.633Z,31904.00
2019-05-25T09:10:01.626Z,32832.00
2019-05-25T09:11:01.614Z,33024.00
2019-05-25T09:12:02.436Z,32704.00
2019-05-25T09:13:01.597Z,30432.00
2019-05-25T09:14:01.583Z,26752.00
2019-05-25T09:15:01.573Z,24352.00
2019-05-25T09:16:01.559Z,23232.00
2019-05-25T09:17:01.557Z,23136.00
2019-05-25T09:18:01.535Z,23616.00
2019-05-25T09:19:01.531Z,22880.00
2019-05-25T09:20:01.536Z,21504.00
2019-05-25T09:21:01.505Z,21344.00
2019-05-25T09:22:03.580Z,22656.00
2019-05-25T09:23:01.499Z,24896.00
2019-05-25T09:24:01.471Z,29312.00
2019-05-25T09:25:01.461Z,34144.00
2019-05-25T09:26:01.446Z,42592.00
2019-05-25T09:27:01.435Z,74880.00
2019-05-25T09:28:01.425Z,93856.00
2019-05-25T09:29:04.577Z,45728.00
2019-05-25T09:30:01.405Z,48576.00
2019-05-25T09:31:01.394Z,42400.00
2019-05-25T09:32:01.381Z,41120.00
2019-05-25T09:33:01.414Z,53088.00
2019-05-25T09:34:01.364Z,60352.00
2019-05-25T09:35:01.347Z,38432.00
2019-05-25T09:36:01.335Z,35392.00
2019-05-25T09:37:01.319Z,36896.00
2019-05-25T09:38:01.313Z,38976.00
2019-05-25T09:39:01.299Z,43904.00
2019-05-25T09:40:01.289Z,106368.00
2019-05-25T09:41:01.276Z,61952.00
2019-05-25T09:42:01.270Z,60256.00
2019-05-25T09:43:01.252Z,88960.00
2019-05-25T09:44:01.241Z,86560.00
2019-05-25T09:45:01.235Z,48800.00
2019-05-25T09:46:03.265Z,97472.00
2019-05-25T09:47:01.211Z,85504.00
2019-05-25T09:48:01.199Z,69024.00
2019-05-25T09:49:01.188Z,56448.00
2019-05-25T09:50:01.178Z,62528.00
2019-05-25T09:51:01.214Z,119680.00
2019-05-25T09:52:01.153Z,120512.00
2019-05-25T09:53:01.149Z,112032.00
2019-05-25T09:54:01.133Z,116480.00
2019-05-25T09:55:01.123Z,114464.00
2019-05-25T09:56:01.124Z,64576.00
2019-05-25T09:57:01.131Z,36288.00
2019-05-25T09:58:01.089Z,29248.00
2019-05-25T09:59:01.084Z,23104.00
2019-05-25T10:00:01.073Z,21024.00
2019-05-25T10:01:01.062Z,25120.00
2019-05-25T10:02:01.049Z,33952.00
2019-05-25T10:03:01.050Z,109728.00
2019-05-25T10:04:09.234Z,55968.00
2019-05-25T10:06:10.984Z,88768.00
2019-05-25T10:07:02.119Z,81920.00
2019-05-25T10:08:55.030Z,39072.00
2019-05-25T10:09:55.007Z,28960.00
2019-05-25T10:11:49.551Z,27872.00
2019-05-25T10:12:40.757Z,40544.00
2019-05-25T10:14:35.172Z,29248.00
2019-05-25T10:15:34.107Z,27264.00
2019-05-25T10:17:27.037Z,89472.00
2019-05-25T10:18:27.003Z,67296.00
2019-05-25T10:20:19.931Z,77952.00
2019-05-25T10:21:19.897Z,89504.00
2019-05-25T10:23:12.785Z,108896.00
2019-05-25T10:24:12.773Z,119456.00
2019-05-25T10:25:12.881Z,126848.00
2019-05-25T10:26:12.751Z,99552.00
2019-05-25T10:27:12.759Z,124608.00
2019-05-25T10:28:12.781Z,130080.00
2019-05-25T10:29:12.716Z,136352.00
2019-05-25T10:30:12.705Z,128352.00
2019-05-25T10:31:12.702Z,129760.00
2019-05-25T10:32:12.695Z,127008.00
2019-05-25T10:33:12.682Z,126112.00
2019-05-25T10:34:12.699Z,122688.00
2019-05-25T10:35:12.658Z,129056.00
2019-05-25T10:36:12.678Z,125600.00
2019-05-25T10:37:12.633Z,132192.00
2019-05-25T10:38:12.628Z,127424.00
2019-05-25T10:39:12.622Z,122016.00
2019-05-25T10:40:12.617Z,131456.00
2019-05-25T10:41:12.604Z,129440.00
2019-05-25T10:42:12.590Z,52352.00
2019-05-25T10:43:12.588Z,127808.00
2019-05-25T10:44:12.578Z,127488.00
2019-05-25T10:45:12.577Z,126432.00
2019-05-25T10:46:12.572Z,128000.00
2019-05-25T10:47:12.563Z,126048.00
2019-05-25T10:48:12.541Z,119488.00
2019-05-25T10:49:12.544Z,123328.00
2019-05-25T10:50:12.535Z,73056.00
2019-05-25T10:51:12.526Z,82016.00
2019-05-25T10:52:12.524Z,120128.00
2019-05-25T10:53:12.508Z,125344.00
2019-05-25T10:54:12.507Z,125792.00
2019-05-25T10:55:12.518Z,125888.00
2019-05-25T10:56:12.495Z,124480.00
2019-05-25T10:57:13.389Z,123104.00
2019-05-25T10:58:12.476Z,121056.00
2019-05-25T10:59:12.473Z,118240.00
2019-05-25T11:00:12.467Z,120704.00
2019-05-25T11:01:12.464Z,117824.00
2019-05-25T11:02:12.453Z,120096.00
2019-05-25T11:03:12.451Z,123488.00
2019-05-25T11:04:12.437Z,130752.00
2019-05-25T11:05:12.454Z,83392.00
2019-05-25T11:06:12.433Z,34880.00
2019-05-25T11:07:12.424Z,31264.00
2019-05-25T11:08:12.416Z,36832.00
2019-05-25T11:09:12.421Z,123136.00
2019-05-25T11:10:12.402Z,122176.00
2019-05-25T11:11:12.406Z,128544.00
2019-05-25T11:12:12.385Z,108512.00
2019-05-25T11:13:12.380Z,107392.00
2019-05-25T11:14:12.376Z,136224.00
2019-05-25T11:15:12.363Z,132288.00
2019-05-25T11:16:12.358Z,127808.00
2019-05-25T11:17:12.360Z,127168.00
2019-05-25T11:18:12.347Z,128160.00
2019-05-25T11:19:12.334Z,126656.00
2019-05-25T11:20:12.330Z,125472.00
2019-05-25T11:21:12.329Z,42176.00
2019-05-25T11:22:12.315Z,42016.00
2019-05-25T11:23:12.305Z,42080.00
2019-05-25T11:24:12.297Z,119104.00
2019-05-25T11:25:12.293Z,119360.00
2019-05-25T11:26:12.282Z,47744.00
2019-05-25T11:27:12.281Z,120416.00
2019-05-25T11:28:12.263Z,106880.00
2019-05-25T11:29:12.261Z,42688.00
2019-05-25T11:30:12.252Z,130688.00
2019-05-25T11:31:12.247Z,134272.00
2019-05-25T11:32:12.236Z,74784.00
2019-05-25T11:33:12.225Z,103584.00
2019-05-25T11:34:12.219Z,128192.00
2019-05-25T11:35:12.253Z,32064.00
2019-05-25T11:36:12.226Z,30816.00
2019-05-25T11:37:15.425Z,32256.00
2019-05-25T11:38:12.189Z,68064.00
2019-05-25T11:39:12.181Z,121984.00
2019-05-25T11:40:12.172Z,127840.00
2019-05-25T11:41:12.164Z,127488.00
2019-05-25T11:42:12.150Z,124800.00
2019-05-25T11:43:12.145Z,113152.00
2019-05-25T11:44:12.136Z,109536.00
2019-05-25T11:45:12.123Z,112896.00
2019-05-25T11:46:12.122Z,120384.00
2019-05-25T11:47:12.114Z,130752.00
2019-05-25T11:48:12.104Z,141568.00
2019-05-25T11:49:22.240Z,40128.00
2019-05-25T11:50:12.088Z,29120.00
2019-05-25T11:51:12.079Z,30528.00
2019-05-25T11:52:12.075Z,30848.00
2019-05-25T11:53:12.067Z,54624.00
2019-05-25T11:54:12.056Z,30240.00
2019-05-25T11:55:12.045Z,29760.00
2019-05-25T11:56:12.038Z,30752.00
2019-05-25T11:57:12.032Z,32960.00
2019-05-25T11:58:12.028Z,31968.00
2019-05-25T11:59:12.015Z,113792.00
2019-05-25T12:00:24.508Z,115424.00
2019-05-25T12:01:11.990Z,118432.00
2019-05-25T12:02:11.990Z,118272.00
2019-05-25T12:03:11.977Z,121728.00
2019-05-25T12:04:11.966Z,121216.00
2019-05-25T12:05:11.968Z,119968.00
2019-05-25T12:06:11.950Z,129536.00
2019-05-25T12:07:11.936Z,120704.00
2019-05-25T12:08:11.932Z,112736.00
2019-05-25T12:09:11.926Z,44480.00
2019-05-25T12:10:12.058Z,123040.00
2019-05-25T12:11:11.903Z,120928.00
2019-05-25T12:12:11.897Z,120544.00
2019-05-25T12:13:11.890Z,121760.00
2019-05-25T12:14:11.895Z,123040.00
2019-05-25T12:15:11.880Z,119904.00
2019-05-25T12:16:11.871Z,116224.00
2019-05-25T12:17:11.864Z,115520.00
2019-05-25T12:18:11.853Z,114336.00
2019-05-25T12:19:14.879Z,107904.00
2019-05-25T12:20:11.839Z,99168.00
2019-05-25T12:21:11.834Z,95616.00
2019-05-25T12:22:11.824Z,95904.00
2019-05-25T12:23:12.003Z,94336.00
2019-05-25T12:24:11.813Z,91872.00
2019-05-25T12:25:11.808Z,87776.00
2019-05-25T12:26:11.801Z,88064.00
2019-05-25T12:27:11.794Z,91104.00
2019-05-25T12:28:11.786Z,96512.00
2019-05-25T12:29:11.778Z,95968.00
2019-05-25T12:30:11.771Z,91584.00
2019-05-25T12:31:11.771Z,86720.00
2019-05-25T12:32:11.761Z,86112.00
2019-05-25T12:33:11.755Z,91776.00
2019-05-25T12:34:11.745Z,95872.00
2019-05-25T12:35:11.751Z,100384.00
2019-05-25T12:36:11.738Z,107424.00
2019-05-25T12:37:11.727Z,110496.00
2019-05-25T12:38:11.722Z,79584.00
2019-05-25T12:39:11.722Z,106784.00
2019-05-25T12:40:27.450Z,100832.00
2019-05-25T12:42:12.324Z,91392.00
2019-05-25T12:43:05.115Z,98944.00
2019-05-25T12:44:59.044Z,111776.00
2019-05-25T12:45:59.019Z,111424.00
2019-05-25T12:46:59.012Z,109632.00
2019-05-25T12:47:59.011Z,111584.00
2019-05-25T12:48:59.002Z,109888.00
2019-05-25T12:49:58.989Z,105664.00
2019-05-25T12:50:59.028Z,99392.00
2019-05-25T12:51:59.009Z,94944.00
2019-05-25T12:52:58.972Z,99488.00